Indianapolis, Indiana
Traffic Map
Current Weather Conditions
Indianapolis, Indiana
Few Clouds
Few Clouds
30°
Feels Like: 33°
Wind Chill: 30° Ceiling: Unl
Heat Index: 33° Visibility: 10mi
Dew Point: 21° Wind: 13mph
Humidity: 59% Direction: 150° (SSE)
Pressure: 29.97in Gusts: 0mph
Raw Report DataKIND 291954Z 15011KT 10SM FEW034 FEW300 30/21 A2997 RMK AO2 SLP141 CB DSNT W MOV N T03000211
Traffic Incident Summary
Active as of:
Severity:
Category:
InformationThere was an issue retrieving the traffic information for this location. Please try a different location or try again shortly.
Advertisements
Track Severe Weather on mobile